Language selection

Features

My Weather Profile Weather Topics  | 

Northwest Labrador Sea: Past 24 Hour Conditions

 

Puvirnituq Airport

10:00 AM EST 15 December 2019
Disclaimer

This table is a summary of hourly weather conditions for the past 24 hours.
Please note that these observations might not always be representative of weather conditions over their associated marine area.

Date / Time
(EST)
Wind(knots) Conditions Visibility(km) Pressure(kPa) Air tempC) Relative humidity(%) Dew pointC) Wind Chill
15 December 2019
10:00 NE 12 Mainly Sunny 16 100.7 -21 82 -24 -33
9:00 NE 11 Clear 16 100.8 -22 82 -25 -34
8:00 NE 12 Clear 16 100.9 -22 82 -24 -33
7:00 ENE 10 Clear 16 100.9 -22 79 -25 -33
6:00 ENE 11 Clear 16 101.0 -22 79 -25 -34
5:00 ENE 11 Clear 16 101.0 -22 81 -24 -33
4:00 E 11 Partly Cloudy 16 101.1 -20 79 -23 -31
3:00 ESE 14 Cloudy 16 101.2 -18 81 -21 -30
2:00 E 12 Light Snow 16 101.2 -19 84 -21 -30
1:00 E 11 Light Snow 16 101.3 -19 84 -21 -30
0:00 E 10 Light Snow 16 101.4 -20 85 -22 -30
14 December 2019
23:00 ENE 9 Light Snow 16 101.4 -21 85 -23 -31
22:00 ENE 8 Light Snow 16 101.5 -21 85 -23 -31
21:00 E 5 Cloudy 16 101.6 -19 85 -21 -26
20:00 S 7 Light Snow 16 101.6 -19 84 -21 -27
19:00 SE 8 Cloudy 16 101.7 -20 85 -22 -29
18:00 SE 7 Cloudy 16 101.7 -20 85 -22 -28
17:00 SSE 13 Cloudy 16 101.7 -21 85 -23 -32
16:00 SSE 15 Cloudy 16 101.7 -19 82 -22 -31
15:00 S 16 Light Snow 6 101.7 -18 84 -20 -30
14:00 S 15 Light Snow 6 101.7 -18 86 -20 -30
13:00 S 16 Light Snow 3 101.7 -18 86 -20 -30
12:00 SSW 13 Light Snow 6 101.7 -17 84 -19 -28
11:00 SW 15 Light Snow 16 101.7 -17 80 -20 -28
10:00 SW 13 Light Snow 5 101.7 -17 84 -19 -27

Zoom-in to make a selection

Map of Hudson - Hudson Bay marine weather areas Arviat Airport Baker Lake Airport Chesterfield Inlet Airport Coral Harbour Airport Rankin Inlet Airport Sanikiluaq Airport Whale Cove Airport Cape Dorset Airport Iqaluit Airport Wager Bay Kimmirut Airport Churchill Airport Fort Severn Airport Peawanuck Airport Moosonee Airport Eastmain Airport La Grande Rivière Airport Waskaganish Airport Wemindji Airport Akulivik Airport Inukjuak Airport Ivujivik Airport Kuujjuarapik Airport Puvirnituq Airport Umiujaq Airport Aupaluk Airport Kangiqsujuaq Airport Kangirsuk Airport Kangiqsualujjuaq Airport Kuujjuaq Airport Quaqtaq Airport Salluit Airport Tasiujaq Airport Cape Kakkiviak
Legend:
buoy Buoy
land station Land Station

Hudson - Hudson Bay Area

Another Region

What we are doing

Date modified: